VOBZ/VGA METAR and TAF weather

Enter ICAO airport designator
Station Type Date Time Source
VOBZ METAR 2019/04/25 01:30 UTC NOAA

VOBZ 250130Z 24002KT 5000 HZ NSC 26/25 Q1008 NOSIG


Station Type Date Time Source
VOBZ Decoded METAR 2019/04/25 01:30 UTC NOAA

Vijayawada / Gannavaram, India (VOBZ) 16-32N 080-48E 24M
Apr 24, 2019 - 09:30 PM EDT / 2019.04.25 0130 UTC
Wind: from the WSW (240 degrees) at 2 MPH (2 KT):0
Visibility: 3 mile(s):0
Weather: haze
Temperature: 78 F (26 C)
Dew Point: 77 F (25 C)
Relative Humidity: 94%
Pressure (altimeter): 29.77 in. Hg (1008 hPa)
ob: VOBZ 250130Z 24002KT 5000 HZ NSC 26/25 Q1008 NOSIG
cycle: 1

Station Type Date Time Source
VOBZ TAF 2018/11/15 00:00 UTC NOAA

TAF VOBZ 142300Z 1500/1509 000000KT 1500 BR FEW020
BECMG 1504/1506 09008KT 6000 SCT020

Example: see airport list